Time;durP1;ratioP1;P1;durP2;ratioP2;P2;SDS_P1;SDS_P2;PMS_P1;PMS_P2;Temp;Humidity;BMP_temperature;BMP_pressure;BME280_temperature;BME280_humidity;BME280_pressure;Samples;Min_cycle;Max_cycle;Signal;HPM_P1;HPM_P2
2022/04/18 00:00:39;;;;;;;;;;;11.60;56.60;;;;;;5061155;28;19913;-69
2022/04/18 00:03:05;;;;;;;;;;;11.60;56.70;;;;;;5059166;28;20281;-69
2022/04/18 00:05:31;;;;;;;;;;;11.60;56.70;;;;;;5043707;28;19909;-70
2022/04/18 00:07:56;;;;;;;;;;;11.50;56.70;;;;;;5060282;28;19916;-70
2022/04/18 00:10:21;;;;;;;;;;;11.50;56.70;;;;;;5059485;28;19970;-70
2022/04/18 00:12:47;;;;;;;;;;;11.50;56.90;;;;;;5053965;28;20011;-70
2022/04/18 00:15:12;;;;;;;;;;;11.50;56.90;;;;;;5053659;28;19948;-70
2022/04/18 00:17:38;;;;;;;;;;;11.40;57.00;;;;;;5059489;28;20023;-70
2022/04/18 00:20:04;;;;;;;;;;;11.40;57.00;;;;;;5057101;28;19915;-70
2022/04/18 00:22:29;;;;;;;;;;;11.30;57.00;;;;;;5054605;28;19912;-70
2022/04/18 00:24:55;;;;;;;;;;;11.30;57.10;;;;;;5058080;28;20011;-70
2022/04/18 00:27:20;;;;;;;;;;;11.30;57.20;;;;;;5062563;28;19928;-69
2022/04/18 00:29:47;;;;;;;;;;;11.30;57.20;;;;;;5053524;28;19943;-70
2022/04/18 00:32:14;;;;;;;;;;;11.30;57.20;;;;;;5060000;28;19912;-70
2022/04/18 00:34:39;;;;;;;;;;;11.20;57.30;;;;;;5061930;28;20445;-69
2022/04/18 00:37:05;;;;;;;;;;;11.20;57.30;;;;;;5053113;28;19912;-69
2022/04/18 00:39:30;;;;;;;;;;;11.20;57.40;;;;;;5053550;28;19908;-70
2022/04/18 00:41:55;;;;;;;;;;;11.20;57.40;;;;;;5057367;28;20760;-70
2022/04/18 00:44:21;;;;;;;;;;;11.20;57.50;;;;;;5061434;28;20250;-70
2022/04/18 00:46:46;;;;;;;;;;;11.10;57.40;;;;;;5051987;28;19927;-70
2022/04/18 00:49:12;;;;;;;;;;;11.10;57.50;;;;;;5037899;28;19920;-70
2022/04/18 00:51:37;;;;;;;;;;;11.10;57.50;;;;;;5059513;28;19912;-70
2022/04/18 00:54:03;;;;;;;;;;;11.00;57.50;;;;;;5053633;28;19952;-70
2022/04/18 00:56:29;;;;;;;;;;;11.00;57.50;;;;;;5065296;28;19924;-70
2022/04/18 00:58:54;;;;;;;;;;;11.00;57.50;;;;;;5056208;28;19921;-70
2022/04/18 01:01:20;;;;;;;;;;;11.00;57.50;;;;;;5061882;28;19956;-69
2022/04/18 01:03:46;;;;;;;;;;;11.00;57.60;;;;;;5056720;28;19913;-69
2022/04/18 01:06:13;;;;;;;;;;;11.00;57.60;;;;;;5054186;28;19920;-70
2022/04/18 01:08:38;;;;;;;;;;;10.90;57.60;;;;;;5056406;28;19908;-69
2022/04/18 01:11:05;;;;;;;;;;;10.90;57.50;;;;;;5063743;28;20688;-70
2022/04/18 01:13:38;;;;;;;;;;;10.90;57.60;;;;;;5057166;28;19916;-69
2022/04/18 01:16:04;;;;;;;;;;;10.90;57.60;;;;;;5059401;28;20015;-70
2022/04/18 01:18:29;;;;;;;;;;;10.80;57.50;;;;;;5063457;28;20024;-70
2022/04/18 01:20:54;;;;;;;;;;;10.80;57.60;;;;;;5053492;28;19938;-70
2022/04/18 01:23:20;;;;;;;;;;;10.80;57.60;;;;;;5059562;28;19916;-69
2022/04/18 01:31:14;;;;;;;;;;;10.80;57.80;;;;;;5058547;28;19935;-69
2022/04/18 01:33:39;;;;;;;;;;;10.70;57.80;;;;;;5062944;28;20337;-70
2022/04/18 01:36:05;;;;;;;;;;;10.70;57.80;;;;;;5061144;28;19959;-70
2022/04/18 01:38:31;;;;;;;;;;;10.70;57.90;;;;;;5053966;28;19912;-69
2022/04/18 01:40:56;;;;;;;;;;;10.70;58.00;;;;;;5058706;28;19940;-70
2022/04/18 01:43:22;;;;;;;;;;;10.70;58.00;;;;;;5061890;28;19912;-70
2022/04/18 01:45:47;;;;;;;;;;;10.60;57.90;;;;;;5058947;28;19979;-70
2022/04/18 01:48:13;;;;;;;;;;;10.60;58.10;;;;;;5060940;28;20262;-70
2022/04/18 01:50:39;;;;;;;;;;;10.60;58.10;;;;;;5060352;28;19908;-69
2022/04/18 01:53:04;;;;;;;;;;;10.50;58.10;;;;;;5064436;28;19920;-70
2022/04/18 01:55:30;;;;;;;;;;;10.60;58.30;;;;;;5054491;28;19913;-69
2022/04/18 01:57:55;;;;;;;;;;;10.60;58.30;;;;;;5057578;28;20007;-70
2022/04/18 02:00:21;;;;;;;;;;;10.50;58.30;;;;;;5047591;28;20053;-70
2022/04/18 02:02:46;;;;;;;;;;;10.50;58.30;;;;;;5061383;28;19920;-70
2022/04/18 02:05:12;;;;;;;;;;;10.50;58.30;;;;;;5060028;28;20569;-69
2022/04/18 02:07:38;;;;;;;;;;;10.50;58.30;;;;;;5059879;28;19908;-70
2022/04/18 02:10:04;;;;;;;;;;;10.50;58.40;;;;;;5046409;28;20656;-69
2022/04/18 02:12:29;;;;;;;;;;;10.40;58.30;;;;;;5054625;28;20446;-69
2022/04/18 02:14:55;;;;;;;;;;;10.40;58.40;;;;;;5058194;28;20003;-70
2022/04/18 02:17:20;;;;;;;;;;;10.50;58.50;;;;;;5061419;28;19908;-70
2022/04/18 02:19:46;;;;;;;;;;;10.40;58.40;;;;;;5059183;28;19927;-70
2022/04/18 02:22:14;;;;;;;;;;;10.40;58.40;;;;;;5055195;28;19913;-69
2022/04/18 02:24:40;;;;;;;;;;;10.40;59.10;;;;;;5058654;28;19912;-70
2022/04/18 02:27:06;;;;;;;;;;;10.40;58.40;;;;;;5064032;28;19920;-70
2022/04/18 02:29:32;;;;;;;;;;;10.30;58.40;;;;;;5054725;28;20004;-70
2022/04/18 02:34:41;;;;;;;;;;;10.30;58.40;;;;;;5062560;28;19935;-69
2022/04/18 02:37:07;;;;;;;;;;;10.30;58.40;;;;;;5059535;28;20311;-70
2022/04/18 02:39:33;;;;;;;;;;;10.30;58.40;;;;;;5054965;28;19916;-70
2022/04/18 02:41:58;;;;;;;;;;;10.30;58.50;;;;;;5060252;28;19909;-70
2022/04/18 02:44:24;;;;;;;;;;;10.30;58.50;;;;;;5058253;28;20011;-70
2022/04/18 02:46:49;;;;;;;;;;;10.30;58.50;;;;;;5054419;28;19912;-69
2022/04/18 02:49:15;;;;;;;;;;;10.30;58.60;;;;;;5057857;28;20481;-69
2022/04/18 02:51:40;;;;;;;;;;;10.20;58.60;;;;;;5061474;28;20288;-69
2022/04/18 02:54:06;;;;;;;;;;;10.20;58.60;;;;;;5054623;28;19951;-69
2022/04/18 02:56:31;;;;;;;;;;;10.20;58.50;;;;;;5045479;28;19916;-69
2022/04/18 02:58:57;;;;;;;;;;;10.20;58.60;;;;;;5058395;28;19920;-70
2022/04/18 03:01:22;;;;;;;;;;;10.20;58.60;;;;;;5060022;28;19923;-70
2022/04/18 03:03:48;;;;;;;;;;;10.20;58.70;;;;;;5056286;28;19951;-69
2022/04/18 03:06:13;;;;;;;;;;;10.20;58.70;;;;;;5056564;28;19931;-69
2022/04/18 03:08:39;;;;;;;;;;;10.20;58.60;;;;;;5061277;28;20012;-70
2022/04/18 03:11:08;;;;;;;;;;;10.10;58.60;;;;;;5057941;28;20045;-70
2022/04/18 03:13:34;;;;;;;;;;;10.10;58.60;;;;;;5055556;28;19916;-70
2022/04/18 03:16:00;;;;;;;;;;;10.10;58.80;;;;;;5044468;28;19916;-69
2022/04/18 03:18:26;;;;;;;;;;;10.10;59.40;;;;;;5061403;28;20583;-70
2022/04/18 03:20:51;;;;;;;;;;;10.10;58.80;;;;;;5059972;28;20009;-70
2022/04/18 03:23:17;;;;;;;;;;;10.10;58.90;;;;;;5058249;28;20359;-70
2022/04/18 03:25:43;;;;;;;;;;;10.10;58.80;;;;;;5062956;28;20427;-70
2022/04/18 03:28:09;;;;;;;;;;;10.00;58.80;;;;;;5061318;28;19912;-70
2022/04/18 03:30:34;;;;;;;;;;;10.00;58.80;;;;;;5052760;28;19917;-70
2022/04/18 03:33:00;;;;;;;;;;;10.00;59.10;;;;;;5058688;28;20380;-70
2022/04/18 03:35:26;;;;;;;;;;;10.00;59.00;;;;;;5061410;28;19970;-70
2022/04/18 03:40:36;;;;;;;;;;;10.00;58.90;;;;;;5056437;28;20304;-70
2022/04/18 03:43:02;;;;;;;;;;;10.00;59.10;;;;;;5059323;28;19913;-70
2022/04/18 03:45:27;;;;;;;;;;;10.00;59.10;;;;;;5058107;28;20047;-70
2022/04/18 03:47:52;;;;;;;;;;;9.90;59.10;;;;;;5039682;28;19962;-70
2022/04/18 03:50:18;;;;;;;;;;;9.90;59.10;;;;;;5058072;28;19935;-70
2022/04/18 03:52:43;;;;;;;;;;;9.90;59.20;;;;;;5060463;28;19928;-70
2022/04/18 03:55:09;;;;;;;;;;;9.90;59.30;;;;;;5053569;28;20344;-70
2022/04/18 03:57:34;;;;;;;;;;;9.90;59.20;;;;;;5059417;28;20021;-70
2022/04/18 04:00:00;;;;;;;;;;;9.90;59.40;;;;;;5060577;28;19974;-70
2022/04/18 04:02:25;;;;;;;;;;;9.90;59.30;;;;;;5057952;28;20516;-70
2022/04/18 04:04:51;;;;;;;;;;;9.90;59.40;;;;;;5056187;28;19959;-70
2022/04/18 04:07:16;;;;;;;;;;;9.80;59.40;;;;;;5045792;28;20438;-70
2022/04/18 04:09:42;;;;;;;;;;;9.80;59.40;;;;;;5061289;28;19939;-70
2022/04/18 04:12:08;;;;;;;;;;;9.80;59.50;;;;;;5053639;28;19947;-70
2022/04/18 04:14:33;;;;;;;;;;;9.80;59.50;;;;;;5058019;28;20031;-70
2022/04/18 04:16:59;;;;;;;;;;;9.80;59.60;;;;;;5061005;28;19920;-70
2022/04/18 04:19:24;;;;;;;;;;;9.80;59.70;;;;;;5060247;28;20438;-70
2022/04/18 04:21:50;;;;;;;;;;;9.80;59.70;;;;;;5040233;28;19919;-70
2022/04/18 04:24:15;;;;;;;;;;;9.70;59.70;;;;;;5055608;28;20327;-70
2022/04/18 04:26:41;;;;;;;;;;;9.70;59.70;;;;;;5060718;28;19919;-70
2022/04/18 04:29:06;;;;;;;;;;;9.70;59.70;;;;;;5051405;28;19917;-70
2022/04/18 04:31:32;;;;;;;;;;;9.70;59.90;;;;;;5053441;28;20278;-70
2022/04/18 04:33:57;;;;;;;;;;;9.70;59.90;;;;;;5060299;28;19912;-70
2022/04/18 04:36:22;;;;;;;;;;;9.60;59.90;;;;;;5057630;28;19909;-70
2022/04/18 04:38:48;;;;;;;;;;;9.60;59.90;;;;;;5055799;28;19916;-70
2022/04/18 04:41:15;;;;;;;;;;;9.60;60.10;;;;;;5059989;28;19920;-70
2022/04/18 04:43:40;;;;;;;;;;;9.60;60.00;;;;;;5060656;28;20434;-70
2022/04/18 04:46:06;;;;;;;;;;;9.60;60.10;;;;;;5054012;28;19917;-70
2022/04/18 04:48:31;;;;;;;;;;;9.60;60.20;;;;;;5060641;28;20424;-70
2022/04/18 04:50:57;;;;;;;;;;;9.60;60.30;;;;;;5061882;28;19912;-70
2022/04/18 04:53:22;;;;;;;;;;;9.60;60.40;;;;;;5063057;28;20379;-70
2022/04/18 04:55:48;;;;;;;;;;;9.60;60.50;;;;;;5058619;28;19923;-70
2022/04/18 04:58:13;;;;;;;;;;;9.60;60.60;;;;;;5060649;28;19964;-70
2022/04/18 05:00:39;;;;;;;;;;;9.50;60.50;;;;;;5064900;28;19912;-70
2022/04/18 05:03:06;;;;;;;;;;;9.50;60.60;;;;;;5059896;28;20547;-70
2022/04/18 05:05:35;;;;;;;;;;;9.60;60.70;;;;;;5056685;28;19916;-70
2022/04/18 05:08:01;;;;;;;;;;;9.50;60.60;;;;;;5061753;28;20516;-70
2022/04/18 05:10:26;;;;;;;;;;;9.50;60.70;;;;;;5062825;28;20027;-70
2022/04/18 05:12:52;;;;;;;;;;;9.50;60.70;;;;;;5059271;28;19924;-70
2022/04/18 05:15:17;;;;;;;;;;;9.50;60.80;;;;;;5046110;28;19991;-70
2022/04/18 05:17:43;;;;;;;;;;;9.50;60.90;;;;;;5064531;28;19915;-70
2022/04/18 05:20:09;;;;;;;;;;;9.50;61.00;;;;;;5058971;28;19920;-70
2022/04/18 05:22:35;;;;;;;;;;;9.50;61.10;;;;;;5059953;28;19919;-70
2022/04/18 05:25:00;;;;;;;;;;;9.50;61.20;;;;;;5060758;28;19916;-70
2022/04/18 05:27:26;;;;;;;;;;;9.50;61.20;;;;;;5059554;28;20186;-70
2022/04/18 05:29:52;;;;;;;;;;;9.50;61.20;;;;;;5059213;28;19912;-70
2022/04/18 05:32:17;;;;;;;;;;;9.40;61.20;;;;;;5060326;28;19923;-70
2022/04/18 05:34:43;;;;;;;;;;;9.50;61.90;;;;;;5063414;28;19912;-70
2022/04/18 05:37:09;;;;;;;;;;;9.50;61.30;;;;;;5054006;28;19913;-70
2022/04/18 05:39:35;;;;;;;;;;;9.40;61.20;;;;;;5060099;28;19942;-70
2022/04/18 05:42:00;;;;;;;;;;;9.40;61.30;;;;;;5063375;28;19912;-70
2022/04/18 05:44:26;;;;;;;;;;;9.50;61.30;;;;;;5065145;28;19919;-70
2022/04/18 05:46:51;;;;;;;;;;;9.40;61.20;;;;;;5048163;28;19935;-70
2022/04/18 05:49:17;;;;;;;;;;;9.40;61.30;;;;;;5059165;28;20312;-70
2022/04/18 05:51:42;;;;;;;;;;;9.40;61.30;;;;;;5062728;28;19920;-70
2022/04/18 05:54:08;;;;;;;;;;;9.40;61.40;;;;;;5057963;28;20324;-70
2022/04/18 05:56:34;;;;;;;;;;;9.40;61.40;;;;;;5061444;28;20004;-70
2022/04/18 05:59:00;;;;;;;;;;;9.50;61.40;;;;;;5061915;28;20605;-70
2022/04/18 06:01:25;;;;;;;;;;;9.40;61.30;;;;;;5061851;28;20003;-70
2022/04/18 06:03:51;;;;;;;;;;;9.50;61.50;;;;;;5064863;28;19921;-70
2022/04/18 06:06:16;;;;;;;;;;;9.50;61.40;;;;;;5056736;28;19920;-70
2022/04/18 06:08:42;;;;;;;;;;;9.50;61.40;;;;;;5062623;28;20033;-70
2022/04/18 06:11:07;;;;;;;;;;;9.50;61.30;;;;;;5057808;28;19912;-70
2022/04/18 06:13:33;;;;;;;;;;;9.50;61.10;;;;;;5046278;28;19955;-70
2022/04/18 06:15:58;;;;;;;;;;;9.50;61.10;;;;;;5060838;28;19923;-70
2022/04/18 06:18:24;;;;;;;;;;;9.50;61.10;;;;;;5058717;28;19913;-70
2022/04/18 06:20:49;;;;;;;;;;;9.50;61.10;;;;;;5055826;28;20020;-70
2022/04/18 06:23:18;;;;;;;;;;;9.50;60.90;;;;;;5058611;28;20047;-70
2022/04/18 06:25:44;;;;;;;;;;;9.60;60.90;;;;;;5060969;28;19908;-70
2022/04/18 06:28:09;;;;;;;;;;;9.60;60.90;;;;;;5049016;28;20387;-70
2022/04/18 06:30:35;;;;;;;;;;;9.70;60.90;;;;;;5059781;28;20425;-70
2022/04/18 06:33:00;;;;;;;;;;;9.80;60.80;;;;;;5058430;28;19939;-70
2022/04/18 06:35:26;;;;;;;;;;;9.90;60.70;;;;;;5063484;28;19916;-70
2022/04/18 06:37:51;;;;;;;;;;;10.00;60.60;;;;;;5054294;28;19920;-70
2022/04/18 06:40:17;;;;;;;;;;;10.00;60.20;;;;;;5040301;28;20015;-70
2022/04/18 06:42:42;;;;;;;;;;;10.10;60.10;;;;;;5061448;28;20494;-70
2022/04/18 06:45:08;;;;;;;;;;;10.20;60.00;;;;;;5041775;28;19920;-70
2022/04/18 06:47:33;;;;;;;;;;;10.20;59.90;;;;;;5053820;28;19956;-70
2022/04/18 06:49:59;;;;;;;;;;;10.20;60.00;;;;;;5058877;28;19986;-70
2022/04/18 06:52:25;;;;;;;;;;;10.30;59.80;;;;;;5060417;28;20611;-70
2022/04/18 06:54:51;;;;;;;;;;;10.30;59.90;;;;;;5052878;28;19971;-70
2022/04/18 06:57:16;;;;;;;;;;;10.30;59.90;;;;;;5059832;28;19916;-70
2022/04/18 06:59:42;;;;;;;;;;;10.40;59.90;;;;;;5061580;28;20393;-70
2022/04/18 07:02:08;;;;;;;;;;;10.40;59.80;;;;;;5062372;28;20423;-70
2022/04/18 07:04:34;;;;;;;;;;;10.40;59.60;;;;;;5059985;28;19909;-70
2022/04/18 07:06:59;;;;;;;;;;;10.50;59.60;;;;;;5057036;28;19913;-70
2022/04/18 07:09:24;;;;;;;;;;;10.50;59.70;;;;;;5058992;28;20416;-70
2022/04/18 07:11:51;;;;;;;;;;;10.50;59.50;;;;;;5055117;28;19943;-70
2022/04/18 07:14:16;;;;;;;;;;;10.60;59.40;;;;;;5055452;28;20238;-70
2022/04/18 07:16:42;;;;;;;;;;;10.60;59.30;;;;;;5060870;28;19919;-70
2022/04/18 07:19:08;;;;;;;;;;;10.70;59.20;;;;;;5058083;28;20281;-70
2022/04/18 07:21:33;;;;;;;;;;;10.70;59.10;;;;;;5041687;28;19920;-70
2022/04/18 07:23:59;;;;;;;;;;;10.80;59.10;;;;;;5058777;28;19936;-70
2022/04/18 07:26:25;;;;;;;;;;;10.80;58.90;;;;;;5063332;28;20761;-70
2022/04/18 07:28:50;;;;;;;;;;;10.90;58.90;;;;;;5049569;28;19974;-70
2022/04/18 07:31:16;;;;;;;;;;;10.90;58.80;;;;;;5054558;28;20518;-70
2022/04/18 07:33:41;;;;;;;;;;;11.00;58.80;;;;;;5060289;28;20378;-70
2022/04/18 07:36:07;;;;;;;;;;;11.00;58.60;;;;;;5046324;28;19950;-70
2022/04/18 07:38:50;;;;;;;;;;;11.10;58.70;;;;;;5057392;28;19967;-70
2022/04/18 07:41:20;;;;;;;;;;;11.10;58.60;;;;;;5060531;28;19913;-70
2022/04/18 07:43:46;;;;;;;;;;;11.10;58.60;;;;;;5059583;28;19913;-70
2022/04/18 07:46:12;;;;;;;;;;;11.20;58.60;;;;;;5054294;28;19931;-70
2022/04/18 07:48:38;;;;;;;;;;;11.20;58.60;;;;;;5058619;28;19924;-70
2022/04/18 07:53:48;;;;;;;;;;;11.30;58.30;;;;;;5054282;28;20364;-70
2022/04/18 07:56:13;;;;;;;;;;;11.40;58.50;;;;;;5055257;28;19916;-70
2022/04/18 07:58:38;;;;;;;;;;;11.40;58.20;;;;;;5062331;28;20634;-70
2022/04/18 08:01:04;;;;;;;;;;;11.50;58.20;;;;;;5062341;28;19940;-70
2022/04/18 08:03:32;;;;;;;;;;;11.50;58.20;;;;;;5059109;28;19995;-69
2022/04/18 08:05:58;;;;;;;;;;;11.50;58.30;;;;;;5055489;28;19920;-70
2022/04/18 08:08:24;;;;;;;;;;;11.50;58.70;;;;;;5062259;28;19956;-70
2022/04/18 08:10:49;;;;;;;;;;;11.50;58.10;;;;;;5057382;28;19944;-70
2022/04/18 08:13:15;;;;;;;;;;;11.60;58.00;;;;;;5052577;28;20771;-70
2022/04/18 08:15:41;;;;;;;;;;;11.70;57.90;;;;;;5057580;28;19939;-70
2022/04/18 08:18:06;;;;;;;;;;;11.70;57.90;;;;;;5058893;28;19921;-70
2022/04/18 08:20:32;;;;;;;;;;;11.70;57.60;;;;;;5058549;28;19927;-69
2022/04/18 08:22:58;;;;;;;;;;;11.70;57.70;;;;;;5063522;28;19913;-70
2022/04/18 08:25:23;;;;;;;;;;;11.80;57.70;;;;;;5065347;28;19912;-70
2022/04/18 08:27:49;;;;;;;;;;;11.80;57.60;;;;;;5067925;28;20063;-70
2022/04/18 08:30:14;;;;;;;;;;;11.90;57.50;;;;;;5065757;28;20281;-70
2022/04/18 08:32:40;;;;;;;;;;;11.90;57.30;;;;;;5063603;28;19968;-70
2022/04/18 08:35:06;;;;;;;;;;;12.00;57.30;;;;;;5049381;28;19943;-70
2022/04/18 08:37:34;;;;;;;;;;;12.10;57.30;;;;;;5058190;28;20693;-70
2022/04/18 08:40:04;;;;;;;;;;;12.10;57.30;;;;;;5062183;28;20337;-70
2022/04/18 08:42:36;;;;;;;;;;;12.10;57.20;;;;;;5066134;28;20266;-70
2022/04/18 08:45:04;;;;;;;;;;;12.20;57.00;;;;;;5061208;28;19966;-70
2022/04/18 08:53:01;;;;;;;;;;;12.30;57.10;;;;;;5060401;28;20261;-69
2022/04/18 08:55:27;;;;;;;;;;;12.30;57.00;;;;;;5063990;28;20026;-70
2022/04/18 08:57:53;;;;;;;;;;;12.40;57.10;;;;;;5065633;28;19912;-70
2022/04/18 09:00:18;;;;;;;;;;;12.40;56.90;;;;;;5067604;28;19931;-70
2022/04/18 09:02:44;;;;;;;;;;;12.40;56.90;;;;;;5063093;28;19965;-69
2022/04/18 09:05:13;;;;;;;;;;;12.40;56.70;;;;;;5061822;28;19936;-69
2022/04/18 09:07:55;;;;;;;;;;;12.50;56.70;;;;;;5065684;28;19908;-69
2022/04/18 09:10:24;;;;;;;;;;;12.50;56.80;;;;;;5063873;28;19916;-70
2022/04/18 09:12:51;;;;;;;;;;;12.50;56.70;;;;;;5043295;28;19916;-69
2022/04/18 09:15:35;;;;;;;;;;;12.50;56.60;;;;;;5062178;28;19913;-69
2022/04/18 09:18:06;;;;;;;;;;;12.60;56.60;;;;;;5064751;28;19909;-69
2022/04/18 09:20:39;;;;;;;;;;;12.60;56.50;;;;;;5048386;28;19934;-70
2022/04/18 09:23:05;;;;;;;;;;;12.70;56.60;;;;;;5063211;28;19927;-70
2022/04/18 09:25:36;;;;;;;;;;;12.70;56.40;;;;;;5066695;28;20260;-69
2022/04/18 09:28:02;;;;;;;;;;;12.70;56.40;;;;;;5059154;28;19912;-70
2022/04/18 09:30:31;;;;;;;;;;;12.80;56.20;;;;;;5061738;28;19919;-69
2022/04/18 09:33:05;;;;;;;;;;;12.90;56.20;;;;;;5060651;28;19986;-70
2022/04/18 09:35:31;;;;;;;;;;;12.90;56.20;;;;;;5062513;28;19913;-70
2022/04/18 09:38:11;;;;;;;;;;;12.90;56.20;;;;;;5054687;28;19916;-69
2022/04/18 09:40:37;;;;;;;;;;;13.00;56.00;;;;;;5060090;28;19917;-69
2022/04/18 09:43:03;;;;;;;;;;;13.10;55.70;;;;;;5046732;28;19912;-70
2022/04/18 09:45:28;;;;;;;;;;;13.10;55.60;;;;;;5055254;28;19919;-69
2022/04/18 09:47:55;;;;;;;;;;;13.10;55.60;;;;;;5063097;28;19920;-71
2022/04/18 09:53:06;;;;;;;;;;;13.20;54.80;;;;;;5058267;28;19978;-69
2022/04/18 09:55:31;;;;;;;;;;;13.30;54.80;;;;;;5054467;28;20389;-69
2022/04/18 09:58:03;;;;;;;;;;;13.30;54.80;;;;;;5060990;28;19977;-69
2022/04/18 10:00:29;;;;;;;;;;;13.40;54.70;;;;;;5059533;28;19908;-69
2022/04/18 10:02:56;;;;;;;;;;;13.40;54.60;;;;;;5058941;28;20305;-69
2022/04/18 10:05:22;;;;;;;;;;;13.40;54.20;;;;;;5061791;28;20330;-69
2022/04/18 10:07:48;;;;;;;;;;;13.40;54.10;;;;;;5062762;28;19912;-69
2022/04/18 10:10:14;;;;;;;;;;;13.40;54.30;;;;;;5065307;28;19916;-69
2022/04/18 10:12:39;;;;;;;;;;;13.50;54.20;;;;;;5057522;28;19933;-69
2022/04/18 10:15:05;;;;;;;;;;;13.50;54.10;;;;;;5059324;28;19912;-69
2022/04/18 10:17:32;;;;;;;;;;;13.60;54.20;;;;;;5064183;28;20007;-69
2022/04/18 10:20:16;;;;;;;;;;;13.60;54.50;;;;;;5056189;28;20011;-69
2022/04/18 10:23:00;;;;;;;;;;;13.70;54.50;;;;;;5058273;28;19940;-69
2022/04/18 10:25:44;;;;;;;;;;;13.70;54.50;;;;;;5060663;28;20411;-69
2022/04/18 10:28:10;;;;;;;;;;;13.80;54.50;;;;;;5053900;28;19913;-69
2022/04/18 10:30:37;;;;;;;;;;;13.90;54.80;;;;;;5057524;28;19916;-69
2022/04/18 10:33:03;;;;;;;;;;;14.00;54.50;;;;;;5059771;28;19917;-69
2022/04/18 10:35:29;;;;;;;;;;;14.10;54.20;;;;;;5060546;28;19909;-69
2022/04/18 10:37:57;;;;;;;;;;;14.10;54.40;;;;;;5054785;28;19962;-69
2022/04/18 10:40:23;;;;;;;;;;;14.20;54.30;;;;;;5057725;28;19912;-69
2022/04/18 10:42:48;;;;;;;;;;;14.30;54.60;;;;;;5062104;28;19969;-69
2022/04/18 10:45:17;;;;;;;;;;;14.40;54.40;;;;;;5054648;28;20258;-69
2022/04/18 10:48:01;;;;;;;;;;;14.50;54.40;;;;;;5059944;28;19921;-69
2022/04/18 10:50:48;;;;;;;;;;;14.60;54.30;;;;;;5061790;28;19917;-69
2022/04/18 10:53:22;;;;;;;;;;;14.70;54.10;;;;;;5053848;28;19922;-69
2022/04/18 10:55:50;;;;;;;;;;;14.90;54.40;;;;;;5055921;28;20372;-69
2022/04/18 10:58:17;;;;;;;;;;;15.00;54.60;;;;;;5059841;28;19946;-69
2022/04/18 11:00:52;;;;;;;;;;;15.10;54.50;;;;;;5062190;28;19913;-69
2022/04/18 11:03:36;;;;;;;;;;;15.20;54.10;;;;;;5059536;28;19994;-69
2022/04/18 11:06:02;;;;;;;;;;;15.40;54.80;;;;;;5058245;28;20416;-69
2022/04/18 11:08:29;;;;;;;;;;;15.50;54.50;;;;;;5063771;28;19939;-69
2022/04/18 11:11:13;;;;;;;;;;;15.60;55.00;;;;;;5058859;28;20411;-69
2022/04/18 11:13:42;;;;;;;;;;;15.70;55.10;;;;;;5057481;28;19913;-69
2022/04/18 11:16:22;;;;;;;;;;;15.80;55.10;;;;;;5060962;28;19913;-69
2022/04/18 11:19:07;;;;;;;;;;;15.90;55.00;;;;;;5055711;28;19927;-69
2022/04/18 11:21:52;;;;;;;;;;;16.10;55.10;;;;;;5054891;28;19931;-69
2022/04/18 11:24:33;;;;;;;;;;;16.20;54.80;;;;;;5059261;28;19916;-69
2022/04/18 11:26:59;;;;;;;;;;;16.30;54.40;;;;;;5059633;28;20312;-69
2022/04/18 11:29:25;;;;;;;;;;;16.40;54.30;;;;;;5055402;28;19912;-69
2022/04/18 11:31:51;;;;;;;;;;;16.50;54.10;;;;;;5059217;28;19916;-69
2022/04/18 11:34:17;;;;;;;;;;;16.60;54.40;;;;;;5063704;28;19916;-69
2022/04/18 11:36:43;;;;;;;;;;;16.70;54.10;;;;;;5052707;28;20522;-69
2022/04/18 11:39:10;;;;;;;;;;;16.80;54.00;;;;;;5056219;28;19970;-69
2022/04/18 11:41:36;;;;;;;;;;;16.80;54.50;;;;;;5059606;28;19915;-69
2022/04/18 11:44:02;;;;;;;;;;;16.90;54.20;;;;;;5062064;28;19916;-69
2022/04/18 11:46:28;;;;;;;;;;;17.00;54.50;;;;;;5054336;28;20667;-69
2022/04/18 11:48:54;;;;;;;;;;;17.00;54.30;;;;;;5058662;28;19924;-69
2022/04/18 11:51:39;;;;;;;;;;;17.10;54.20;;;;;;5061826;28;20562;-69
2022/04/18 11:54:04;;;;;;;;;;;17.20;54.50;;;;;;5052475;28;19917;-69
2022/04/18 11:56:30;;;;;;;;;;;17.30;54.70;;;;;;5057122;28;20438;-69
2022/04/18 11:58:55;;;;;;;;;;;17.40;54.60;;;;;;5060862;28;20008;-69
2022/04/18 12:06:52;;;;;;;;;;;17.60;54.30;;;;;;5060561;28;19983;-69
2022/04/18 12:09:21;;;;;;;;;;;17.60;54.00;;;;;;5057326;28;19944;-69
2022/04/18 12:11:46;;;;;;;;;;;17.60;54.30;;;;;;5058243;28;19956;-69
2022/04/18 12:14:12;;;;;;;;;;;17.70;54.70;;;;;;5058929;28;19999;-69
2022/04/18 12:16:38;;;;;;;;;;;17.80;54.30;;;;;;5062562;28;20416;-69
2022/04/18 12:19:05;;;;;;;;;;;17.80;54.30;;;;;;5049026;28;19912;-69
2022/04/18 12:21:30;;;;;;;;;;;17.80;54.50;;;;;;5053407;28;19909;-69
2022/04/18 12:23:57;;;;;;;;;;;17.90;53.50;;;;;;5059013;28;19950;-69
2022/04/18 12:26:29;;;;;;;;;;;17.90;53.50;;;;;;5062404;28;20569;-69
2022/04/18 12:28:58;;;;;;;;;;;18.00;53.10;;;;;;5053687;28;19913;-69
2022/04/18 12:31:24;;;;;;;;;;;18.10;53.20;;;;;;5057460;28;20261;-69
2022/04/18 12:33:50;;;;;;;;;;;18.10;53.40;;;;;;5060649;28;19916;-69
2022/04/18 12:36:30;;;;;;;;;;;18.10;53.50;;;;;;5052382;28;19909;-68
2022/04/18 12:38:55;;;;;;;;;;;18.20;53.00;;;;;;5055069;28;19924;-69
2022/04/18 12:41:27;;;;;;;;;;;18.20;53.70;;;;;;5058805;28;20368;-69
2022/04/18 12:43:53;;;;;;;;;;;18.30;53.20;;;;;;5057858;28;19999;-69
2022/04/18 12:46:22;;;;;;;;;;;18.30;53.20;;;;;;5054143;28;20113;-69
2022/04/18 12:48:51;;;;;;;;;;;18.40;53.80;;;;;;5058598;28;20011;-69
2022/04/18 12:51:18;;;;;;;;;;;18.40;53.90;;;;;;5060769;28;20371;-67
2022/04/18 12:53:50;;;;;;;;;;;18.50;54.30;;;;;;5052336;28;19977;-68
2022/04/18 12:56:23;;;;;;;;;;;18.50;54.00;;;;;;5059710;28;19912;-69
2022/04/18 12:58:49;;;;;;;;;;;18.60;53.70;;;;;;5058894;28;19909;-68
2022/04/18 13:01:24;;;;;;;;;;;18.60;54.00;;;;;;5052449;28;19920;-69
2022/04/18 13:03:51;;;;;;;;;;;18.60;53.90;;;;;;5058289;28;19966;-69
2022/04/18 13:06:23;;;;;;;;;;;18.60;54.10;;;;;;5060909;28;19920;-69
2022/04/18 13:08:48;;;;;;;;;;;18.70;54.30;;;;;;5065995;28;20049;-69
2022/04/18 13:11:14;;;;;;;;;;;18.70;54.10;;;;;;5057011;28;19912;-68
2022/04/18 13:13:42;;;;;;;;;;;18.70;53.60;;;;;;5060988;28;19916;-68
2022/04/18 13:16:23;;;;;;;;;;;18.80;53.60;;;;;;5064589;28;19927;-69
2022/04/18 13:18:59;;;;;;;;;;;18.90;53.80;;;;;;5052755;28;19909;-69
2022/04/18 13:21:25;;;;;;;;;;;18.90;53.60;;;;;;5057476;28;19961;-69
2022/04/18 13:23:51;;;;;;;;;;;19.00;53.80;;;;;;5062986;28;19962;-69
2022/04/18 13:26:16;;;;;;;;;;;19.00;53.60;;;;;;5066097;28;19928;-69
2022/04/18 13:28:42;;;;;;;;;;;19.10;53.90;;;;;;5057637;28;19920;-68
2022/04/18 13:31:07;;;;;;;;;;;19.10;53.90;;;;;;5041300;28;19949;-69
2022/04/18 13:33:33;;;;;;;;;;;19.20;53.50;;;;;;5064684;28;20008;-69
2022/04/18 13:38:42;;;;;;;;;;;19.30;53.20;;;;;;5059899;28;20013;-69
2022/04/18 13:41:08;;;;;;;;;;;19.30;54.10;;;;;;5060803;28;19954;-69
2022/04/18 13:43:33;;;;;;;;;;;19.40;53.60;;;;;;5056402;28;19908;-69
2022/04/18 13:45:59;;;;;;;;;;;19.40;53.10;;;;;;5059946;28;20328;-69
2022/04/18 13:48:24;;;;;;;;;;;19.40;53.20;;;;;;5059341;28;20399;-69
2022/04/18 13:50:52;;;;;;;;;;;19.50;53.40;;;;;;5062000;28;19917;-69
2022/04/18 13:53:17;;;;;;;;;;;19.50;53.10;;;;;;5056502;28;19997;-69
2022/04/18 13:55:43;;;;;;;;;;;19.50;53.50;;;;;;5058139;28;19912;-68
2022/04/18 13:58:11;;;;;;;;;;;19.50;53.20;;;;;;5062728;28;19912;-68
2022/04/18 14:00:37;;;;;;;;;;;19.60;53.20;;;;;;5059023;28;19923;-68
2022/04/18 14:03:04;;;;;;;;;;;19.60;53.30;;;;;;5059485;28;19913;-68
2022/04/18 14:05:29;;;;;;;;;;;19.70;52.80;;;;;;5059139;28;19919;-68
2022/04/18 14:07:55;;;;;;;;;;;19.70;52.20;;;;;;5063589;28;19912;-68
2022/04/18 14:10:20;;;;;;;;;;;19.80;52.90;;;;;;5054120;28;19909;-68
2022/04/18 14:12:46;;;;;;;;;;;19.80;52.80;;;;;;5061033;28;20404;-68
2022/04/18 14:20:39;;;;;;;;;;;19.90;53.10;;;;;;5053316;28;19983;-68
2022/04/18 14:23:05;;;;;;;;;;;20.00;53.10;;;;;;5058797;28;19917;-69
2022/04/18 14:25:31;;;;;;;;;;;20.00;53.10;;;;;;5060916;28;19913;-69
2022/04/18 14:27:56;;;;;;;;;;;20.00;52.90;;;;;;5053124;28;19913;-69
2022/04/18 14:30:22;;;;;;;;;;;20.00;52.80;;;;;;5057633;28;20000;-69
2022/04/18 14:32:47;;;;;;;;;;;20.10;52.40;;;;;;5061639;28;19936;-69
2022/04/18 14:35:14;;;;;;;;;;;20.10;50.70;;;;;;5061923;28;20024;-69
2022/04/18 14:37:40;;;;;;;;;;;20.20;49.90;;;;;;5056879;28;19996;-68
2022/04/18 14:40:06;;;;;;;;;;;20.30;49.90;;;;;;5060122;28;20323;-69
2022/04/18 14:42:32;;;;;;;;;;;20.40;49.30;;;;;;5061939;28;19913;-69
2022/04/18 14:44:57;;;;;;;;;;;20.40;49.20;;;;;;5050722;28;19919;-69
2022/04/18 14:47:23;;;;;;;;;;;20.50;48.10;;;;;;5056673;28;19955;-69
2022/04/18 14:49:49;;;;;;;;;;;20.60;47.50;;;;;;5043126;28;19917;-69
2022/04/18 14:52:15;;;;;;;;;;;20.80;47.10;;;;;;5058290;28;19939;-69